Time;durP1;ratioP1;P1;durP2;ratioP2;P2;SDS_P1;SDS_P2;PMS_P1;PMS_P2;Temp;Humidity;BMP_temperature;BMP_pressure;BME280_temperature;BME280_humidity;BME280_pressure;Samples;Min_cycle;Max_cycle;Signal;HPM_P1;HPM_P2
2021/08/12 00:01:48;;;;;;;1999.90;999.90;;;19.50;99.90;;;;;;5014153;28;20169;-70
2021/08/12 00:04:18;;;;;;;1999.90;999.90;;;19.40;99.90;;;;;;5013794;28;20250;-69
2021/08/12 00:06:44;;;;;;;1999.90;999.90;;;19.30;99.90;;;;;;5013733;28;20194;-69
2021/08/12 00:09:10;;;;;;;1999.90;999.90;;;19.30;99.90;;;;;;5013706;28;20408;-70
2021/08/12 00:11:35;;;;;;;1999.90;999.90;;;19.30;99.90;;;;;;5013175;28;20782;-69
2021/08/12 00:14:01;;;;;;;1999.90;999.90;;;19.20;99.90;;;;;;5013895;28;20175;-69
2021/08/12 00:16:26;;;;;;;1999.90;999.90;;;19.00;99.90;;;;;;5014277;28;20181;-70
2021/08/12 00:18:55;;;;;;;1999.90;999.90;;;18.90;99.90;;;;;;5014727;28;20177;-69
2021/08/12 00:21:22;;;;;;;1999.90;999.90;;;18.90;99.90;;;;;;5014467;28;20683;-69
2021/08/12 00:23:49;;;;;;;1999.90;999.90;;;18.80;99.90;;;;;;5014360;28;20402;-69
2021/08/12 00:26:14;;;;;;;1999.90;999.90;;;18.90;99.90;;;;;;5014161;28;20474;-69
2021/08/12 00:28:40;;;;;;;1999.90;999.90;;;18.90;99.90;;;;;;5013108;28;20431;-69
2021/08/12 00:31:05;;;;;;;1999.90;999.90;;;18.90;99.90;;;;;;5014226;28;20663;-69
2021/08/12 00:33:33;;;;;;;1999.90;999.90;;;18.90;99.90;;;;;;5014056;28;20180;-69
2021/08/12 00:35:59;;;;;;;1999.90;999.90;;;18.80;99.90;;;;;;5014073;28;20180;-69
2021/08/12 00:38:24;;;;;;;1999.90;999.90;;;18.80;99.90;;;;;;5013948;28;20533;-69
2021/08/12 00:40:50;;;;;;;1999.90;999.90;;;18.90;99.90;;;;;;5014133;28;20213;-69
2021/08/12 00:43:16;;;;;;;1999.90;999.90;;;18.70;99.90;;;;;;5013994;28;20198;-69
2021/08/12 00:45:41;;;;;;;1999.90;999.90;;;18.60;99.90;;;;;;5014239;28;20198;-69
2021/08/12 00:48:07;;;;;;;1999.90;999.90;;;18.50;99.90;;;;;;5013708;28;20225;-70
2021/08/12 00:50:35;;;;;;;1999.90;999.90;;;18.50;99.90;;;;;;5013108;28;20180;-69
2021/08/12 00:53:01;;;;;;;1999.90;999.90;;;18.40;99.90;;;;;;5012850;28;20256;-69
2021/08/12 00:55:27;;;;;;;1999.90;999.90;;;18.50;99.90;;;;;;5012756;28;20537;-69
2021/08/12 00:57:53;;;;;;;1999.90;999.90;;;18.40;99.90;;;;;;5012875;28;20462;-69
2021/08/12 01:00:19;;;;;;;1999.90;999.90;;;18.40;99.90;;;;;;5012487;28;20179;-69
2021/08/12 01:02:44;;;;;;;1999.90;999.90;;;18.40;99.90;;;;;;5012803;28;20774;-69
2021/08/12 01:05:11;;;;;;;1999.90;999.90;;;18.40;99.90;;;;;;5012524;28;20172;-69
2021/08/12 01:08:11;;;;;;;1999.90;999.90;;;18.40;99.90;;;;;;5012716;28;20182;-69
2021/08/12 01:11:23;;;;;;;1999.90;999.90;;;18.40;99.90;;;;;;5001946;28;20446;-69
2021/08/12 01:14:04;;;;;;;1999.90;999.90;;;18.40;99.90;;;;;;5006876;28;20435;-69
2021/08/12 01:16:36;;;;;;;1999.90;999.90;;;18.40;99.90;;;;;;5013989;28;20400;-70
2021/08/12 01:19:13;;;;;;;1999.90;999.90;;;18.40;99.90;;;;;;5014017;28;20490;-70
2021/08/12 01:22:01;;;;;;;1999.90;999.90;;;18.40;99.90;;;;;;5014331;28;20423;-70
2021/08/12 01:24:31;;;;;;;1999.90;999.90;;;18.30;99.90;;;;;;5013554;28;20488;-70
2021/08/12 01:27:02;;;;;;;1999.90;999.90;;;18.20;99.90;;;;;;5013616;28;20444;-70
2021/08/12 01:29:44;;;;;;;1999.90;999.90;;;18.10;99.90;;;;;;5012525;28;20408;-70
2021/08/12 01:32:14;;;;;;;1999.90;999.90;;;18.10;99.90;;;;;;5012593;28;20405;-70
2021/08/12 01:34:45;;;;;;;1999.90;999.90;;;18.10;99.90;;;;;;5013420;28;20417;-70
2021/08/12 01:37:13;;;;;;;1999.90;999.90;;;18.00;99.90;;;;;;5013609;28;20465;-70
2021/08/12 01:39:42;;;;;;;1999.90;999.90;;;18.00;99.90;;;;;;5013540;28;20410;-70
2021/08/12 01:42:10;;;;;;;1999.90;999.90;;;18.00;99.90;;;;;;5013447;28;20463;-70
2021/08/12 01:44:39;;;;;;;1999.90;999.90;;;18.00;99.90;;;;;;5013019;28;20917;-71
2021/08/12 01:47:07;;;;;;;1999.90;999.90;;;18.00;99.90;;;;;;5012889;28;20473;-70
2021/08/12 01:49:35;;;;;;;1999.90;999.90;;;18.00;99.90;;;;;;5012572;28;20414;-70
2021/08/12 01:52:02;;;;;;;1999.90;999.90;;;18.00;99.90;;;;;;5017608;28;20845;-70
2021/08/12 01:54:29;;;;;;;1999.90;999.90;;;18.00;99.90;;;;;;5016979;28;20936;-70
2021/08/12 01:56:56;;;;;;;1999.90;999.90;;;18.00;99.90;;;;;;5016684;28;20947;-70
2021/08/12 01:59:24;;;;;;;1999.90;999.90;;;18.00;99.90;;;;;;5016889;28;20403;-70
2021/08/12 02:01:50;;;;;;;1999.90;999.90;;;18.00;99.90;;;;;;5017087;28;20788;-70
2021/08/12 02:04:17;;;;;;;1999.90;999.90;;;17.90;99.90;;;;;;5016784;28;20399;-70
2021/08/12 02:06:44;;;;;;;1999.90;999.90;;;17.80;99.90;;;;;;5016844;28;20450;-70
2021/08/12 02:09:10;;;;;;;1999.90;999.90;;;17.80;99.90;;;;;;5016600;28;20418;-70
2021/08/12 02:11:36;;;;;;;1999.90;999.90;;;17.80;99.90;;;;;;5016144;28;20408;-70
2021/08/12 02:14:02;;;;;;;1999.90;999.90;;;17.90;99.90;;;;;;5016488;28;20255;-70
2021/08/12 02:16:28;;;;;;;1999.90;999.90;;;17.90;99.90;;;;;;5016641;28;20467;-70
2021/08/12 02:18:54;;;;;;;1999.90;999.90;;;17.80;99.90;;;;;;5016597;28;20925;-70
2021/08/12 02:21:32;;;;;;;1999.90;999.90;;;17.70;99.90;;;;;;5016623;28;20173;-70
2021/08/12 02:24:02;;;;;;;1999.90;999.90;;;17.80;99.90;;;;;;5016100;28;20178;-70
2021/08/12 02:26:34;;;;;;;1999.90;999.90;;;17.80;99.90;;;;;;5016316;28;20404;-70
2021/08/12 02:29:01;;;;;;;1999.90;999.90;;;17.80;99.90;;;;;;5016335;28;20407;-70
2021/08/12 02:31:29;;;;;;;1999.90;999.90;;;17.70;99.90;;;;;;5016391;28;20408;-70
2021/08/12 02:33:55;;;;;;;1999.90;999.90;;;17.70;99.90;;;;;;5015943;28;20911;-70
2021/08/12 02:36:21;;;;;;;1999.90;999.90;;;17.60;99.90;;;;;;5016278;28;20506;-70
2021/08/12 02:38:48;;;;;;;1999.90;999.90;;;17.60;99.90;;;;;;5015784;28;20999;-70
2021/08/12 02:41:19;;;;;;;1999.90;999.90;;;17.60;99.90;;;;;;5016195;28;20494;-70
2021/08/12 02:43:45;;;;;;;1999.90;999.90;;;17.50;99.90;;;;;;5016113;28;20407;-70
2021/08/12 02:46:13;;;;;;;1999.90;999.90;;;17.50;99.90;;;;;;5016138;28;20462;-71
2021/08/12 02:48:40;;;;;;;1999.90;999.90;;;17.50;99.90;;;;;;5015668;28;20540;-70
2021/08/12 02:51:06;;;;;;;1999.90;999.90;;;17.40;99.90;;;;;;5015752;28;20413;-70
2021/08/12 02:53:34;;;;;;;1999.90;999.90;;;17.40;99.90;;;;;;5015580;28;20451;-70
2021/08/12 02:56:03;;;;;;;1999.90;999.90;;;17.40;99.90;;;;;;5015803;28;20965;-70
2021/08/12 02:58:32;;;;;;;1999.90;999.90;;;17.50;99.90;;;;;;5015563;28;20465;-70
2021/08/12 03:00:59;;;;;;;1999.90;999.90;;;17.50;99.90;;;;;;5014437;28;20827;-70
2021/08/12 03:03:26;;;;;;;1999.90;999.90;;;17.50;99.90;;;;;;5016045;28;20432;-70
2021/08/12 03:05:53;;;;;;;1999.90;999.90;;;17.50;99.90;;;;;;5015312;28;20498;-71
2021/08/12 03:08:19;;;;;;;1999.90;999.90;;;17.50;99.90;;;;;;5015273;28;20836;-70
2021/08/12 03:10:45;;;;;;;1999.90;999.90;;;17.50;99.90;;;;;;5014841;28;20427;-70
2021/08/12 03:13:11;;;;;;;1999.90;999.90;;;17.50;99.90;;;;;;5015143;28;20419;-70
2021/08/12 03:15:39;;;;;;;1999.90;999.90;;;17.60;99.90;;;;;;5015222;28;20421;-70
2021/08/12 03:18:06;;;;;;;1999.90;999.90;;;17.60;99.90;;;;;;5015682;28;20470;-70
2021/08/12 03:20:31;;;;;;;1999.90;999.90;;;17.60;99.90;;;;;;5015607;28;20739;-70
2021/08/12 03:22:58;;;;;;;1999.90;999.90;;;17.50;99.90;;;;;;5015632;28;20412;-70
2021/08/12 03:25:24;;;;;;;1999.90;999.90;;;17.50;99.90;;;;;;5015107;28;20177;-70
2021/08/12 03:27:50;;;;;;;1999.90;999.90;;;17.50;99.90;;;;;;5015078;28;20433;-70
2021/08/12 03:30:16;;;;;;;1999.90;999.90;;;17.50;99.90;;;;;;5015266;28;20420;-70
2021/08/12 03:32:41;;;;;;;1999.90;999.90;;;17.50;99.90;;;;;;5015320;28;20188;-70
2021/08/12 03:35:08;;;;;;;1999.90;999.90;;;17.60;99.90;;;;;;5014995;28;20400;-70
2021/08/12 03:37:33;;;;;;;1999.90;999.90;;;17.50;99.90;;;;;;5014919;28;20304;-70
2021/08/12 03:39:59;;;;;;;1999.90;999.90;;;17.50;99.90;;;;;;5015249;28;20806;-70
2021/08/12 03:42:24;;;;;;;1999.90;999.90;;;17.60;99.90;;;;;;5014881;28;20215;-70
2021/08/12 03:44:50;;;;;;;1999.90;999.90;;;17.50;99.90;;;;;;5014577;28;20177;-70
2021/08/12 03:47:18;;;;;;;1999.90;999.90;;;17.50;99.90;;;;;;5015287;28;20262;-69
2021/08/12 03:49:44;;;;;;;1999.90;999.90;;;17.50;99.90;;;;;;5012655;28;20180;-69
2021/08/12 03:52:10;;;;;;;1999.90;999.90;;;17.40;99.90;;;;;;5013898;28;20895;-69
2021/08/12 03:54:36;;;;;;;1999.90;999.90;;;17.40;99.90;;;;;;5013848;28;20964;-69
2021/08/12 03:57:05;;;;;;;1999.90;999.90;;;17.40;99.90;;;;;;5013804;28;20228;-69
2021/08/12 03:59:31;;;;;;;1999.90;999.90;;;17.40;99.90;;;;;;5014091;28;20809;-69
2021/08/12 04:01:56;;;;;;;1999.90;999.90;;;17.40;99.90;;;;;;5013983;28;20408;-69
2021/08/12 04:04:22;;;;;;;1999.90;999.90;;;17.40;99.90;;;;;;5013801;28;20185;-69
2021/08/12 04:06:48;;;;;;;1999.90;999.90;;;17.40;99.90;;;;;;5013806;28;20236;-69
2021/08/12 04:09:13;;;;;;;1999.90;999.90;;;17.40;99.90;;;;;;5013906;28;20207;-69
2021/08/12 04:11:39;;;;;;;1999.90;999.90;;;17.40;99.90;;;;;;5012883;28;20177;-69
2021/08/12 04:14:05;;;;;;;1999.90;999.90;;;17.30;99.90;;;;;;5013333;28;20656;-69
2021/08/12 04:16:30;;;;;;;1999.90;999.90;;;17.30;99.90;;;;;;5013641;28;20173;-69
2021/08/12 04:18:56;;;;;;;1999.90;999.90;;;17.20;99.90;;;;;;5013540;28;20172;-69
2021/08/12 04:21:21;;;;;;;1999.90;999.90;;;17.10;99.90;;;;;;5013774;28;20200;-69
2021/08/12 04:23:47;;;;;;;1999.90;999.90;;;17.10;99.90;;;;;;5013391;28;20679;-69
2021/08/12 04:26:13;;;;;;;1999.90;999.90;;;17.10;99.90;;;;;;5013388;28;20167;-69
2021/08/12 04:28:38;;;;;;;1999.90;999.90;;;17.10;99.90;;;;;;5013301;28;20190;-69
2021/08/12 04:31:04;;;;;;;1999.90;999.90;;;17.10;99.90;;;;;;5013410;28;20545;-69
2021/08/12 04:33:31;;;;;;;1999.90;999.90;;;17.10;99.90;;;;;;5013233;28;20181;-69
2021/08/12 04:35:57;;;;;;;1999.90;999.90;;;17.00;99.90;;;;;;5013187;28;20184;-69
2021/08/12 04:38:25;;;;;;;1999.90;999.90;;;17.00;99.90;;;;;;5013170;28;20484;-69
2021/08/12 04:40:52;;;;;;;1999.90;999.90;;;17.00;99.90;;;;;;5013333;28;20408;-69
2021/08/12 04:43:18;;;;;;;1999.90;999.90;;;17.00;99.90;;;;;;5013098;28;20616;-69
2021/08/12 04:45:43;;;;;;;1999.90;999.90;;;17.00;99.90;;;;;;5012897;28;20929;-69
2021/08/12 04:48:09;;;;;;;1999.90;999.90;;;16.90;99.90;;;;;;5012964;28;20520;-69
2021/08/12 04:50:37;;;;;;;1999.90;999.90;;;16.90;99.90;;;;;;5013133;28;20186;-69
2021/08/12 04:53:03;;;;;;;1999.90;999.90;;;16.90;99.90;;;;;;5013053;28;20175;-69
2021/08/12 04:55:29;;;;;;;1999.90;999.90;;;16.90;99.90;;;;;;5012800;28;20774;-69
2021/08/12 04:57:54;;;;;;;1999.90;999.90;;;16.90;99.90;;;;;;5012828;28;20459;-69
2021/08/12 05:00:20;;;;;;;1999.90;999.90;;;16.80;99.90;;;;;;5012842;28;20623;-69
2021/08/12 05:02:46;;;;;;;1999.90;999.90;;;16.90;99.90;;;;;;5013399;28;20195;-70
2021/08/12 05:05:12;;;;;;;1999.90;999.90;;;16.90;99.90;;;;;;5013277;28;20168;-70
2021/08/12 05:07:38;;;;;;;1999.90;999.90;;;16.90;99.90;;;;;;5013640;28;20376;-70
2021/08/12 05:10:04;;;;;;;1999.90;999.90;;;17.00;99.90;;;;;;5013408;28;20170;-70
2021/08/12 05:12:30;;;;;;;1999.90;999.90;;;17.00;99.90;;;;;;5013372;28;20887;-70
2021/08/12 05:14:58;;;;;;;1999.90;999.90;;;17.00;99.90;;;;;;5013063;28;20442;-70
2021/08/12 05:17:24;;;;;;;1999.90;999.90;;;17.00;99.90;;;;;;5012295;28;20664;-68
2021/08/12 05:19:50;;;;;;;1999.90;999.90;;;17.10;99.90;;;;;;5012462;28;20415;-68
2021/08/12 05:22:20;;;;;;;1999.90;999.90;;;17.10;99.90;;;;;;5012488;28;20506;-69
2021/08/12 05:24:46;;;;;;;1999.90;999.90;;;17.20;99.90;;;;;;5011557;28;20244;-69
2021/08/12 05:27:12;;;;;;;1999.90;999.90;;;17.30;99.90;;;;;;5012484;28;21044;-69
2021/08/12 05:29:37;;;;;;;1999.90;999.90;;;17.30;99.90;;;;;;5012491;28;20194;-69
2021/08/12 05:32:03;;;;;;;1999.90;999.90;;;17.50;99.90;;;;;;5012019;28;20170;-69
2021/08/12 05:34:29;;;;;;;1999.90;999.90;;;17.60;99.90;;;;;;5010848;28;20842;-69
2021/08/12 05:36:55;;;;;;;1999.90;999.90;;;17.70;99.90;;;;;;4993310;28;20456;-69
2021/08/12 05:39:20;;;;;;;1999.90;999.90;;;17.90;99.90;;;;;;5012740;28;20174;-69
2021/08/12 05:41:46;;;;;;;1999.90;999.90;;;18.00;99.90;;;;;;5012376;28;20165;-69
2021/08/12 05:44:11;;;;;;;1999.90;999.90;;;18.00;99.90;;;;;;5012067;28;20164;-69
2021/08/12 05:46:37;;;;;;;1999.90;999.90;;;18.10;99.90;;;;;;5012118;28;20185;-69
2021/08/12 05:49:03;;;;;;;1999.90;999.90;;;18.10;99.90;;;;;;5012438;28;20564;-69
2021/08/12 05:51:30;;;;;;;1999.90;999.90;;;18.20;99.90;;;;;;5012214;28;20165;-69
2021/08/12 05:53:56;;;;;;;1999.90;999.90;;;18.30;99.90;;;;;;5011803;28;20571;-69
2021/08/12 05:56:22;;;;;;;1999.90;999.90;;;18.40;99.90;;;;;;5012124;28;20415;-69
2021/08/12 05:58:47;;;;;;;1999.90;999.90;;;18.40;99.90;;;;;;5011875;28;20475;-69
2021/08/12 06:01:13;;;;;;;1999.90;999.90;;;18.60;99.90;;;;;;5012099;28;20250;-69
2021/08/12 06:03:39;;;;;;;1999.90;999.90;;;18.70;99.90;;;;;;5011859;28;20172;-69
2021/08/12 06:06:04;;;;;;;1999.90;999.90;;;18.80;99.90;;;;;;5012073;28;20223;-70
2021/08/12 06:08:30;;;;;;;1999.90;999.90;;;18.90;99.90;;;;;;5011959;28;20237;-69
2021/08/12 06:10:55;;;;;;;1999.90;999.90;;;19.00;99.90;;;;;;5012229;28;20254;-69
2021/08/12 06:13:21;;;;;;;1999.90;999.90;;;19.00;99.90;;;;;;5012079;28;20171;-69
2021/08/12 06:15:47;;;;;;;1999.90;999.90;;;19.10;99.90;;;;;;4994599;28;20202;-69
2021/08/12 06:18:15;;;;;;;1999.90;999.90;;;19.10;99.90;;;;;;5011930;28;20281;-69
2021/08/12 06:20:42;;;;;;;1999.90;999.90;;;19.20;99.90;;;;;;5012055;28;20168;-70
2021/08/12 06:23:09;;;;;;;1999.90;999.90;;;19.20;99.90;;;;;;5011809;28;20413;-69
2021/08/12 06:25:37;;;;;;;1999.90;999.90;;;19.30;99.90;;;;;;5010953;28;20402;-69
2021/08/12 06:28:04;;;;;;;1999.90;999.90;;;19.50;99.90;;;;;;5011455;28;20435;-69
2021/08/12 06:30:30;;;;;;;1999.90;999.90;;;19.70;99.90;;;;;;5011664;28;20449;-69
2021/08/12 06:32:56;;;;;;;1999.90;999.90;;;19.90;99.90;;;;;;5011569;28;20389;-70
2021/08/12 06:35:21;;;;;;;1999.90;999.90;;;20.10;99.90;;;;;;5012232;28;20903;-69
2021/08/12 06:37:49;;;;;;;1999.90;999.90;;;20.30;99.90;;;;;;5015136;28;20192;-69
2021/08/12 06:40:18;;;;;;;1999.90;999.90;;;20.40;99.90;;;;;;5015184;28;20171;-69
2021/08/12 06:42:44;;;;;;;1999.90;999.90;;;20.50;99.90;;;;;;5014424;28;20415;-69
2021/08/12 06:45:10;;;;;;;1999.90;999.90;;;20.60;99.90;;;;;;5014668;28;20909;-69
2021/08/12 06:47:36;;;;;;;1999.90;999.90;;;20.80;99.90;;;;;;5014873;28;20296;-71
2021/08/12 06:50:06;;;;;;;1999.90;999.90;;;20.90;99.90;;;;;;4993960;28;20940;-71
2021/08/12 06:52:32;;;;;;;1999.90;999.90;;;21.00;99.90;;;;;;4994771;28;20410;-72
2021/08/12 06:54:58;;;;;;;1999.90;999.90;;;21.10;99.90;;;;;;4994149;28;20391;-72
2021/08/12 06:57:24;;;;;;;1999.90;999.90;;;21.30;99.90;;;;;;4994573;28;20488;-70
2021/08/12 06:59:49;;;;;;;1999.90;999.90;;;21.40;99.90;;;;;;4994714;28;20633;-70
2021/08/12 07:02:15;;;;;;;1999.90;999.90;;;21.50;99.90;;;;;;4994703;28;20168;-70
2021/08/12 07:04:40;;;;;;;1999.90;999.90;;;21.70;99.90;;;;;;4994950;28;20210;-70
2021/08/12 07:07:06;;;;;;;1999.90;999.90;;;21.80;99.90;;;;;;4994579;28;20227;-70
2021/08/12 07:09:32;;;;;;;1999.90;999.90;;;21.90;99.90;;;;;;4998294;28;20197;-71
2021/08/12 07:11:57;;;;;;;1999.90;999.90;;;22.00;99.90;;;;;;4998956;28;20292;-70
2021/08/12 07:14:23;;;;;;;1999.90;999.90;;;22.00;99.90;;;;;;4996246;28;20202;-71
2021/08/12 07:16:49;;;;;;;1999.90;999.90;;;22.10;99.90;;;;;;4997325;28;20240;-71
2021/08/12 07:19:15;;;;;;;1999.90;999.90;;;22.10;99.90;;;;;;4995231;28;20439;-71
2021/08/12 07:21:41;;;;;;;1999.90;999.90;;;22.10;99.90;;;;;;4994025;28;20177;-69
2021/08/12 07:24:08;;;;;;;1999.90;999.90;;;22.10;99.90;;;;;;4994559;28;20180;-70
2021/08/12 07:26:35;;;;;;;1999.90;999.90;;;22.00;99.90;;;;;;4994334;28;20418;-69
2021/08/12 07:29:00;;;;;;;1999.90;999.90;;;22.00;99.90;;;;;;4994502;28;20439;-69
2021/08/12 07:31:26;;;;;;;1999.90;999.90;;;21.90;99.90;;;;;;4993972;28;20443;-70
2021/08/12 07:33:52;;;;;;;1999.90;999.90;;;21.90;99.90;;;;;;4993819;28;20173;-69
2021/08/12 07:36:18;;;;;;;1999.90;999.90;;;21.80;99.90;;;;;;4994126;28;20863;-69
2021/08/12 07:38:43;;;;;;;1999.90;999.90;;;21.90;99.90;;;;;;4994086;28;20568;-69
2021/08/12 07:41:09;;;;;;;1999.90;999.90;;;21.80;99.90;;;;;;4993757;28;20386;-69
2021/08/12 07:43:35;;;;;;;1999.90;999.90;;;21.80;99.90;;;;;;4993361;28;20531;-69
2021/08/12 07:46:01;;;;;;;1999.90;999.90;;;21.90;99.90;;;;;;4993358;28;20250;-69
2021/08/12 07:48:26;;;;;;;1999.90;999.90;;;21.90;99.90;;;;;;4993316;28;20673;-69
2021/08/12 07:50:52;;;;;;;1999.90;999.90;;;22.00;99.90;;;;;;4994080;28;20180;-69
2021/08/12 07:53:18;;;;;;;1999.90;999.90;;;22.10;99.90;;;;;;4993566;28;20227;-69
2021/08/12 07:55:43;;;;;;;1999.90;999.90;;;22.20;99.90;;;;;;4993913;28;20409;-70
2021/08/12 07:58:09;;;;;;;1999.90;999.90;;;22.30;99.90;;;;;;4993786;28;20694;-69
2021/08/12 08:00:35;;;;;;;1999.90;999.90;;;22.40;99.90;;;;;;4993787;28;20227;-70
2021/08/12 08:03:00;;;;;;;1999.90;999.90;;;22.40;99.90;;;;;;4992829;28;20227;-69
2021/08/12 08:05:26;;;;;;;1999.90;999.90;;;22.60;99.90;;;;;;4993818;28;20256;-69
2021/08/12 08:07:54;;;;;;;1999.90;999.90;;;22.70;99.90;;;;;;4994013;28;20674;-69
2021/08/12 08:10:22;;;;;;;1999.90;999.90;;;22.90;99.90;;;;;;4994218;28;20411;-70
2021/08/12 08:12:48;;;;;;;1999.90;999.90;;;23.00;99.90;;;;;;4990758;28;20379;-70
2021/08/12 08:15:15;;;;;;;1999.90;999.90;;;23.10;99.90;;;;;;4993011;28;20408;-69
2021/08/12 08:17:41;;;;;;;1999.90;999.90;;;23.10;99.90;;;;;;4992999;28;20233;-70
2021/08/12 08:20:09;;;;;;;1999.90;999.90;;;23.10;99.90;;;;;;4993033;28;20451;-70
2021/08/12 08:22:36;;;;;;;1999.90;999.90;;;23.20;99.90;;;;;;4993168;28;20590;-69
2021/08/12 08:25:02;;;;;;;1999.90;999.90;;;23.20;99.90;;;;;;4992954;28;20381;-70
2021/08/12 08:27:27;;;;;;;1999.90;999.90;;;23.30;99.90;;;;;;4992689;28;20604;-70
2021/08/12 08:29:53;;;;;;;1999.90;999.90;;;23.30;99.90;;;;;;4993209;28;20481;-70
2021/08/12 08:32:19;;;;;;;1999.90;999.90;;;23.40;99.90;;;;;;4992575;28;20238;-70
2021/08/12 08:34:45;;;;;;;1999.90;999.90;;;23.40;99.90;;;;;;4992080;28;20177;-70
2021/08/12 08:37:10;;;;;;;1999.90;999.90;;;23.40;99.90;;;;;;4993098;28;20962;-70
2021/08/12 08:39:36;;;;;;;1999.90;999.90;;;23.60;99.90;;;;;;4992985;28;20223;-69
2021/08/12 08:42:02;;;;;;;1999.90;999.90;;;23.70;99.90;;;;;;4992903;28;20224;-70
2021/08/12 08:44:33;;;;;;;1999.90;999.90;;;23.80;99.90;;;;;;4992954;28;20606;-70
2021/08/12 08:46:59;;;;;;;1999.90;999.90;;;24.00;99.90;;;;;;4992937;28;20201;-70
2021/08/12 08:49:27;;;;;;;1999.90;999.90;;;24.20;99.90;;;;;;4992586;28;20825;-70
2021/08/12 08:51:54;;;;;;;1999.90;999.90;;;24.40;99.90;;;;;;4992880;28;20470;-70
2021/08/12 08:54:20;;;;;;;1999.90;999.90;;;24.50;99.90;;;;;;4992262;28;20921;-70
2021/08/12 08:56:46;;;;;;;1999.90;999.90;;;24.70;99.90;;;;;;4992429;28;21746;-70
2021/08/12 08:59:12;;;;;;;1999.90;999.90;;;24.80;99.90;;;;;;4992752;28;20169;-70
2021/08/12 09:01:39;;;;;;;1999.90;999.90;;;24.80;99.90;;;;;;4992643;28;20232;-70
2021/08/12 09:04:05;;;;;;;1999.90;999.90;;;24.80;99.90;;;;;;4992076;28;20989;-70
2021/08/12 09:06:31;;;;;;;1999.90;999.90;;;24.80;99.90;;;;;;4992678;28;20359;-70
2021/08/12 09:08:59;;;;;;;1999.90;999.90;;;24.80;99.90;;;;;;4992573;28;20403;-70
2021/08/12 09:11:26;;;;;;;1999.90;999.90;;;24.90;99.90;;;;;;4992083;28;20252;-70
2021/08/12 09:13:53;;;;;;;1999.90;999.90;;;25.00;99.90;;;;;;4991882;28;20392;-70
2021/08/12 09:16:28;;;;;;;1999.90;999.90;;;24.90;99.90;;;;;;4992097;28;20420;-70
2021/08/12 09:19:12;;;;;;;1999.90;999.90;;;24.90;99.90;;;;;;4991370;28;20452;-70
2021/08/12 09:21:38;;;;;;;1999.90;999.90;;;24.90;99.90;;;;;;4991870;28;21004;-70
2021/08/12 09:24:03;;;;;;;1999.90;999.90;;;24.90;99.90;;;;;;4991810;28;20384;-70
2021/08/12 09:26:37;;;;;;;1999.90;999.90;;;25.00;99.90;;;;;;4991454;28;20379;-70
2021/08/12 09:29:03;;;;;;;1999.90;999.90;;;25.20;99.90;;;;;;4991046;28;20174;-70
2021/08/12 09:31:28;;;;;;;1999.90;999.90;;;25.30;99.90;;;;;;4990873;28;20894;-70
2021/08/12 09:33:55;;;;;;;1999.90;999.90;;;25.40;99.90;;;;;;4990734;28;20583;-70
2021/08/12 09:36:30;;;;;;;1999.90;999.90;;;25.60;99.90;;;;;;4991305;28;20543;-71
2021/08/12 09:39:22;;;;;;;1999.90;999.90;;;25.80;99.90;;;;;;4990913;28;20448;-71
2021/08/12 09:41:53;;;;;;;1999.90;999.90;;;26.10;99.90;;;;;;4990076;28;20387;-71
2021/08/12 09:44:39;;;;;;;1999.90;999.90;;;26.10;99.90;;;;;;4990103;28;20397;-71
2021/08/12 09:47:26;;;;;;;1999.90;999.90;;;26.10;99.90;;;;;;4990773;28;20430;-71
2021/08/12 09:49:54;;;;;;;1999.90;999.90;;;26.30;99.90;;;;;;4990790;28;20404;-71
2021/08/12 09:52:27;;;;;;;1999.90;999.90;;;26.50;99.90;;;;;;4990703;28;20376;-71
2021/08/12 09:54:58;;;;;;;1999.90;999.90;;;26.70;99.90;;;;;;4990064;28;20376;-71
2021/08/12 09:57:24;;;;;;;1999.90;999.90;;;27.00;99.90;;;;;;4990688;28;20428;-71
2021/08/12 09:59:52;;;;;;;1999.90;999.90;;;27.10;99.90;;;;;;4990672;28;20408;-71
2021/08/12 10:02:19;;;;;;;1999.90;999.90;;;27.10;99.90;;;;;;4989892;28;20383;-71
2021/08/12 10:04:45;;;;;;;1999.90;999.90;;;27.10;99.90;;;;;;4990314;28;20504;-71
2021/08/12 10:07:40;;;;;;;1999.90;999.90;;;27.00;99.90;;;;;;4990389;28;20410;-71
2021/08/12 10:10:23;;;;;;;1999.90;999.90;;;26.90;99.90;;;;;;4989975;28;20811;-71
2021/08/12 10:12:54;;;;;;;1999.90;999.90;;;26.80;99.90;;;;;;4994013;28;20412;-71
2021/08/12 10:15:21;;;;;;;1999.90;999.90;;;26.90;99.90;;;;;;4994183;28;20383;-71
2021/08/12 10:17:48;;;;;;;1999.90;999.90;;;26.80;99.90;;;;;;4993876;28;20460;-71
2021/08/12 10:20:23;;;;;;;1999.90;999.90;;;26.90;99.90;;;;;;4994711;28;20875;-71
2021/08/12 10:22:51;;;;;;;1999.90;999.90;;;27.00;99.90;;;;;;4994394;28;20377;-71
2021/08/12 10:25:19;;;;;;;1999.90;999.90;;;27.00;99.90;;;;;;4993487;28;20383;-71
2021/08/12 10:27:47;;;;;;;1999.90;999.90;;;27.10;99.90;;;;;;4994225;28;20433;-71
2021/08/12 10:30:14;;;;;;;1999.90;999.90;;;27.10;99.90;;;;;;4994409;28;20375;-71
2021/08/12 10:32:46;;;;;;;1999.90;999.90;;;27.10;99.90;;;;;;4993413;28;20416;-72
2021/08/12 10:35:11;;;;;;;1999.90;999.90;;;27.10;99.90;;;;;;4993594;28;20405;-71
2021/08/12 10:37:37;;;;;;;1999.90;999.90;;;27.10;99.90;;;;;;4993702;28;20976;-71
2021/08/12 10:40:04;;;;;;;1999.90;999.90;;;27.00;99.90;;;;;;4993543;28;20177;-69
2021/08/12 10:42:31;;;;;;;1999.90;999.90;;;26.90;99.90;;;;;;4993960;28;20463;-69
2021/08/12 10:44:57;;;;;;;1999.90;999.90;;;26.80;99.90;;;;;;4993949;28;20436;-69
2021/08/12 10:47:55;;;;;;;1999.90;999.90;;;26.80;99.90;;;;;;4993521;28;20488;-69
2021/08/12 10:50:26;;;;;;;1999.90;999.90;;;26.70;99.90;;;;;;4992097;28;20428;-70
2021/08/12 10:53:07;;;;;;;1999.90;999.90;;;26.80;99.90;;;;;;4991317;28;20804;-69
2021/08/12 10:55:56;;;;;;;1999.90;999.90;;;27.00;99.90;;;;;;4992603;28;20936;-70
2021/08/12 11:00:56;;;;;;;1999.90;999.90;;;27.20;99.90;;;;;;4992893;28;20524;-68
2021/08/12 11:03:34;;;;;;;1999.90;999.90;;;27.40;99.90;;;;;;4992218;28;20208;-68
2021/08/12 11:06:05;;;;;;;1999.90;999.90;;;27.60;99.90;;;;;;4986307;28;20422;-68
2021/08/12 11:08:49;;;;;;;1999.90;999.90;;;27.70;99.90;;;;;;4993121;28;20437;-68
2021/08/12 11:11:23;;;;;;;1999.90;999.90;;;27.90;99.90;;;;;;4988267;28;20409;-69
2021/08/12 11:13:54;;;;;;;1999.90;999.90;;;28.30;99.90;;;;;;4992351;28;20400;-68
2021/08/12 11:16:22;;;;;;;1999.90;999.90;;;28.50;99.90;;;;;;4993110;28;20405;-69
2021/08/12 11:18:56;;;;;;;1999.90;999.90;;;28.40;99.90;;;;;;4992657;28;20472;-71
2021/08/12 11:21:31;;;;;;;1999.90;999.90;;;28.50;99.90;;;;;;4992505;28;20506;-69
2021/08/12 11:24:00;;;;;;;1999.90;999.90;;;28.60;99.90;;;;;;4982646;28;20391;-69
2021/08/12 11:26:46;;;;;;;1999.90;999.90;;;28.70;99.90;;;;;;4993428;28;20503;-68
2021/08/12 11:29:30;;;;;;;1999.90;999.90;;;28.70;99.90;;;;;;4993076;28;20412;-69
2021/08/12 11:31:56;;;;;;;1999.90;999.90;;;28.60;99.90;;;;;;4973049;28;20386;-69
2021/08/12 11:34:22;;;;;;;1999.90;999.90;;;28.60;99.90;;;;;;4973326;28;20413;-69
2021/08/12 11:37:09;;;;;;;1999.90;999.90;;;28.70;99.90;;;;;;4981313;28;20193;-68
2021/08/12 11:39:58;;;;;;;1999.90;999.90;;;28.70;99.90;;;;;;4993706;28;20413;-69
2021/08/12 11:42:23;;;;;;;1999.90;999.90;;;28.80;99.90;;;;;;4993354;28;20394;-70
2021/08/12 11:44:53;;;;;;;1999.90;999.90;;;29.00;99.90;;;;;;4991654;28;20442;-69
2021/08/12 11:47:20;;;;;;;1999.90;999.90;;;29.20;99.90;;;;;;4992867;28;20307;-69
2021/08/12 11:49:55;;;;;;;1999.90;999.90;;;29.20;99.90;;;;;;4976149;28;20749;-69
2021/08/12 11:52:31;;;;;;;1999.90;999.90;;;29.20;99.90;;;;;;4975998;28;20474;-69
2021/08/12 11:55:08;;;;;;;1999.90;999.90;;;29.20;99.90;;;;;;4976915;28;20432;-69
2021/08/12 11:57:41;;;;;;;1999.90;999.90;;;29.30;99.90;;;;;;4992994;28;20804;-70
2021/08/12 12:00:12;;;;;;;1999.90;999.90;;;29.60;99.90;;;;;;4992642;28;20520;-69
2021/08/12 12:02:58;;;;;;;1999.90;999.90;;;29.90;99.90;;;;;;4991960;28;20766;-69
2021/08/12 12:05:38;;;;;;;1999.90;999.90;;;30.30;99.90;;;;;;4992046;28;20415;-69
2021/08/12 12:08:08;;;;;;;1999.90;999.90;;;30.60;99.90;;;;;;4992274;28;20524;-69